Time;durP1;ratioP1;P1;durP2;ratioP2;P2;SDS_P1;SDS_P2;PMS_P1;PMS_P2;Temp;Humidity;BMP_temperature;BMP_pressure;BME280_temperature;BME280_humidity;BME280_pressure;Samples;Min_cycle;Max_cycle;Signal;HPM_P1;HPM_P2
2021/11/18 00:01:13;;;;;;;17.48;11.27;;;8.80;62.10;;;;;;4909411;29;20044;-84
2021/11/18 00:03:40;;;;;;;17.15;11.60;;;8.70;62.00;;;;;;4908815;29;20118;-83
2021/11/18 00:06:06;;;;;;;19.48;11.65;;;8.80;62.10;;;;;;4910756;29;20359;-81
2021/11/18 00:08:32;;;;;;;17.95;11.20;;;8.80;62.00;;;;;;4909143;29;20036;-84
2021/11/18 00:11:01;;;;;;;16.70;10.95;;;8.80;62.10;;;;;;4907886;29;20046;-84
2021/11/18 00:13:30;;;;;;;18.58;12.07;;;8.80;62.10;;;;;;4909759;29;20416;-83
2021/11/18 00:15:57;;;;;;;19.00;12.38;;;8.80;62.10;;;;;;4892860;29;20039;-84
2021/11/18 00:18:27;;;;;;;18.90;11.38;;;8.70;62.10;;;;;;4908239;29;20182;-82
2021/11/18 00:20:56;;;;;;;17.10;11.48;;;8.80;62.20;;;;;;4910998;29;20396;-83
2021/11/18 00:23:25;;;;;;;16.98;11.27;;;8.70;62.30;;;;;;4910513;29;20024;-83
2021/11/18 00:25:51;;;;;;;16.45;11.07;;;8.70;62.20;;;;;;4909584;29;20406;-83
2021/11/18 00:28:17;;;;;;;17.73;11.60;;;8.70;62.10;;;;;;4909196;29;20060;-84
2021/11/18 00:30:44;;;;;;;17.40;11.25;;;8.70;62.10;;;;;;4925354;29;20036;-83
2021/11/18 00:33:10;;;;;;;15.82;10.98;;;8.70;62.00;;;;;;4878572;29;20127;-84
2021/11/18 00:35:37;;;;;;;16.10;11.23;;;8.80;62.10;;;;;;4881901;29;20040;-85
2021/11/18 00:38:06;;;;;;;17.92;11.38;;;8.80;62.00;;;;;;4895983;29;20038;-85
2021/11/18 00:40:39;;;;;;;15.40;10.55;;;8.80;62.20;;;;;;4907827;29;20376;-83
2021/11/18 00:43:07;;;;;;;16.67;10.48;;;8.80;62.10;;;;;;4913301;29;20042;-84
2021/11/18 00:45:34;;;;;;;15.60;11.25;;;8.80;62.00;;;;;;4890944;29;20037;-84
2021/11/18 00:48:01;;;;;;;16.38;10.63;;;8.80;62.00;;;;;;4912938;29;20036;-83
2021/11/18 00:50:34;;;;;;;16.88;10.30;;;8.80;62.00;;;;;;4897521;29;20033;-82
2021/11/18 00:53:02;;;;;;;15.88;10.95;;;8.80;61.90;;;;;;4924168;29;20059;-83
2021/11/18 00:55:30;;;;;;;17.90;11.05;;;8.80;62.00;;;;;;4892547;29;20039;-82
2021/11/18 00:57:56;;;;;;;16.30;10.70;;;8.80;61.90;;;;;;4873512;29;20040;-84
2021/11/18 01:00:28;;;;;;;16.17;10.63;;;8.80;61.90;;;;;;4896014;29;20123;-85
2021/11/18 01:02:55;;;;;;;15.48;10.52;;;8.80;61.80;;;;;;4894168;29;20032;-85
2021/11/18 01:05:28;;;;;;;14.90;10.00;;;8.80;61.80;;;;;;4897632;29;20036;-82
2021/11/18 01:07:55;;;;;;;12.43;8.68;;;8.80;61.70;;;;;;4908728;29;20039;-85
2021/11/18 01:10:23;;;;;;;15.63;9.93;;;8.80;61.50;;;;;;4881991;29;20065;-86
2021/11/18 01:12:50;;;;;;;12.93;8.85;;;8.80;61.30;;;;;;4909583;29;20040;-86
2021/11/18 01:15:20;;;;;;;13.50;8.68;;;8.80;61.10;;;;;;4926273;29;20032;-85
2021/11/18 01:17:46;;;;;;;13.15;8.85;;;8.80;60.90;;;;;;4908975;29;20461;-84
2021/11/18 01:20:14;;;;;;;10.85;7.47;;;8.80;60.70;;;;;;4914661;29;20032;-84
2021/11/18 01:22:41;;;;;;;12.60;7.97;;;8.80;60.60;;;;;;4910113;29;20043;-82
2021/11/18 01:25:10;;;;;;;11.57;7.20;;;8.80;60.60;;;;;;4908354;29;20195;-84
2021/11/18 01:27:43;;;;;;;13.25;8.25;;;8.80;60.60;;;;;;4926134;29;20507;-83
2021/11/18 01:30:22;;;;;;;11.50;7.55;;;8.80;60.80;;;;;;4921121;29;20068;-84
2021/11/18 01:32:51;;;;;;;11.85;7.00;;;8.80;60.60;;;;;;4923732;29;20116;-84
2021/11/18 01:35:24;;;;;;;11.38;7.63;;;8.70;60.50;;;;;;4890902;29;20036;-84
2021/11/18 01:37:50;;;;;;;10.82;7.90;;;8.80;60.60;;;;;;4920921;29;20131;-84
2021/11/18 01:40:20;;;;;;;12.80;7.90;;;8.70;60.50;;;;;;4892992;29;20036;-82
2021/11/18 01:42:52;;;;;;;11.77;8.00;;;8.70;60.30;;;;;;4894033;29;20035;-84
2021/11/18 01:45:20;;;;;;;11.98;7.88;;;8.80;60.40;;;;;;4925127;29;20036;-83
2021/11/18 01:47:46;;;;;;;10.88;7.25;;;8.80;60.50;;;;;;4896574;29;20032;-84
2021/11/18 01:50:19;;;;;;;11.98;7.97;;;8.80;60.40;;;;;;4929931;29;20032;-84
2021/11/18 01:52:47;;;;;;;10.95;7.70;;;8.80;60.40;;;;;;4913230;29;20175;-83
2021/11/18 01:55:20;;;;;;;11.30;7.68;;;8.70;60.50;;;;;;4896950;29;20036;-83
2021/11/18 01:57:48;;;;;;;16.80;8.82;;;8.80;60.50;;;;;;4900262;29;20525;-84
2021/11/18 02:00:42;;;;;;;;;;;8.80;60.40;;;;;;4911215;29;20105;-83
2021/11/18 02:03:08;;;;;;;11.88;7.40;;;8.80;60.30;;;;;;4897133;29;19915;-84
2021/11/18 02:06:19;;;;;;;14.73;8.77;;;8.70;60.30;;;;;;4898109;29;20033;-83
2021/11/18 02:08:45;;;;;;;12.50;8.45;;;8.70;60.10;;;;;;4926713;29;20062;-83
2021/11/18 02:11:37;;;;;;;14.95;8.85;;;8.70;60.00;;;;;;4927675;29;20063;-84
2021/11/18 02:14:07;;;;;;;13.95;8.43;;;8.80;60.00;;;;;;4929748;29;20038;-84
2021/11/18 02:16:33;;;;;;;14.38;8.65;;;8.70;59.80;;;;;;4893104;29;20091;-83
2021/11/18 02:19:00;;;;;;;16.85;9.73;;;8.80;59.80;;;;;;4899179;29;20522;-82
2021/11/18 02:21:27;;;;;;;12.30;8.27;;;8.80;60.50;;;;;;4910612;29;20478;-87
2021/11/18 02:23:56;;;;;;;12.43;8.30;;;8.80;59.80;;;;;;4927879;29;20036;-85
2021/11/18 02:26:25;;;;;;;14.35;8.45;;;8.80;59.90;;;;;;4898155;29;20072;-84
2021/11/18 02:28:54;;;;;;;14.30;9.00;;;8.80;59.80;;;;;;4928290;29;20036;-84
2021/11/18 02:31:29;;;;;;;14.90;8.30;;;8.80;59.50;;;;;;4898273;29;20036;-83
2021/11/18 02:33:58;;;;;;;14.52;8.93;;;8.80;59.50;;;;;;4896331;29;20122;-84
2021/11/18 02:36:25;;;;;;;14.77;8.63;;;8.80;59.50;;;;;;4879999;29;20048;-82
2021/11/18 02:38:51;;;;;;;14.50;8.98;;;8.80;59.40;;;;;;4897917;29;20076;-84
2021/11/18 02:41:21;;;;;;;15.20;9.18;;;8.80;59.40;;;;;;4893215;29;20028;-84
2021/11/18 02:43:49;;;;;;;16.48;9.18;;;8.70;59.50;;;;;;4895569;29;20061;-82
2021/11/18 02:46:16;;;;;;;15.45;8.77;;;8.80;59.40;;;;;;4895019;29;20028;-84
2021/11/18 02:48:43;;;;;;;14.57;8.65;;;8.80;59.30;;;;;;4900896;29;20491;-83
2021/11/18 02:51:12;;;;;;;15.57;8.88;;;8.70;59.30;;;;;;4895207;29;20526;-84
2021/11/18 02:53:40;;;;;;;17.23;8.98;;;8.70;59.20;;;;;;4925475;29;20043;-85
2021/11/18 02:56:07;;;;;;;16.48;9.48;;;8.70;59.20;;;;;;4910135;29;20161;-84
2021/11/18 02:58:41;;;;;;;14.55;8.55;;;8.70;59.20;;;;;;4925008;29;20040;-81
2021/11/18 03:01:32;;;;;;;15.07;9.20;;;8.80;59.10;;;;;;4883814;29;20495;-84
2021/11/18 03:04:00;;;;;;;15.38;8.75;;;8.80;58.90;;;;;;4904346;29;20132;-80
2021/11/18 03:06:27;;;;;;;16.10;9.32;;;8.70;58.90;;;;;;4897171;29;20460;-84
2021/11/18 03:08:53;;;;;;;14.38;8.95;;;8.80;59.00;;;;;;4930318;29;20094;-83
2021/11/18 03:11:21;;;;;;;13.52;8.68;;;8.80;58.60;;;;;;4894997;29;20128;-83
2021/11/18 03:13:47;;;;;;;12.30;8.05;;;8.70;58.60;;;;;;4908462;29;20088;-84
2021/11/18 03:16:15;;;;;;;13.30;8.32;;;8.80;58.50;;;;;;4894491;29;20091;-83
2021/11/18 03:18:41;;;;;;;13.70;8.32;;;8.80;58.40;;;;;;4897329;29;20037;-81
2021/11/18 03:21:12;;;;;;;11.77;7.80;;;8.80;58.20;;;;;;4880733;29;20030;-84
2021/11/18 03:23:39;;;;;;;15.85;8.48;;;8.70;58.10;;;;;;4911573;29;20039;-84
2021/11/18 03:26:12;;;;;;;12.60;8.38;;;8.70;58.00;;;;;;4925706;29;20368;-85
2021/11/18 03:28:39;;;;;;;13.38;7.63;;;8.70;57.90;;;;;;4892977;29;20519;-85
2021/11/18 03:31:07;;;;;;;13.95;7.93;;;8.70;57.80;;;;;;4891180;29;20132;-82
2021/11/18 03:33:38;;;;;;;11.18;7.50;;;8.70;57.60;;;;;;4880430;29;20044;-84
2021/11/18 03:36:05;;;;;;;12.75;8.32;;;8.70;57.60;;;;;;4915125;29;20120;-83
2021/11/18 03:38:32;;;;;;;11.90;7.60;;;8.80;57.50;;;;;;4924207;29;20071;-83
2021/11/18 03:41:25;;;;;;;12.35;7.57;;;8.70;57.40;;;;;;4909604;29;20040;-78
2021/11/18 03:44:04;;;;;;;12.90;7.32;;;8.70;57.50;;;;;;4893776;29;20080;-84
2021/11/18 03:46:35;;;;;;;15.73;7.90;;;8.70;57.20;;;;;;4897328;29;20029;-83
2021/11/18 03:49:06;;;;;;;12.13;7.78;;;8.70;57.10;;;;;;4923169;29;20074;-79
2021/11/18 03:51:36;;;;;;;13.88;7.60;;;8.70;57.00;;;;;;4894552;29;20123;-84
2021/11/18 03:54:04;;;;;;;14.23;7.88;;;8.70;56.90;;;;;;4893171;29;20133;-82
2021/11/18 03:56:38;;;;;;;12.07;7.43;;;8.70;56.90;;;;;;4896396;29;20135;-83
2021/11/18 03:59:10;;;;;;;14.68;8.68;;;8.70;56.90;;;;;;4897904;29;20305;-80
2021/11/18 04:01:37;;;;;;;13.35;8.38;;;8.70;56.80;;;;;;4898248;29;20037;-84
2021/11/18 04:04:07;;;;;;;15.02;8.02;;;8.70;56.90;;;;;;4895533;29;20072;-84
2021/11/18 04:06:38;;;;;;;14.45;7.78;;;8.70;56.90;;;;;;4914907;29;20175;-84
2021/11/18 04:09:05;;;;;;;13.60;8.30;;;8.70;56.90;;;;;;4898503;29;20039;-85
2021/11/18 04:11:33;;;;;;;10.20;7.43;;;8.60;56.70;;;;;;4922938;29;20036;-84
2021/11/18 04:14:04;;;;;;;12.85;8.00;;;8.70;56.70;;;;;;4893014;29;20095;-85
2021/11/18 04:16:30;;;;;;;14.43;8.13;;;8.70;56.60;;;;;;4923561;29;20147;-84
2021/11/18 04:18:57;;;;;;;13.30;8.32;;;8.70;56.50;;;;;;4890492;29;20040;-81
2021/11/18 04:21:28;;;;;;;14.18;8.80;;;8.70;56.60;;;;;;4926224;29;20051;-81
2021/11/18 04:23:54;;;;;;;14.75;8.55;;;8.60;56.60;;;;;;4926316;29;20473;-82
2021/11/18 04:26:20;;;;;;;15.40;8.80;;;8.70;56.50;;;;;;4895910;29;20877;-83
2021/11/18 04:28:46;;;;;;;13.57;8.55;;;8.60;56.50;;;;;;4896309;29;20035;-83
2021/11/18 04:31:17;;;;;;;16.63;8.77;;;8.60;56.50;;;;;;4874891;29;20574;-81
2021/11/18 04:33:43;;;;;;;15.68;9.15;;;8.70;56.50;;;;;;4891087;29;20033;-78
2021/11/18 04:36:12;;;;;;;15.27;8.88;;;8.60;56.30;;;;;;4895169;29;20036;-80
2021/11/18 04:38:38;;;;;;;17.98;9.80;;;8.60;56.50;;;;;;4894335;29;20042;-81
2021/11/18 04:41:06;;;;;;;16.40;10.00;;;8.60;56.20;;;;;;4924926;29;20506;-80
2021/11/18 04:43:32;;;;;;;15.23;9.30;;;8.60;56.30;;;;;;4896087;29;20038;-81
2021/11/18 04:46:02;;;;;;;16.42;9.18;;;8.60;56.20;;;;;;4928535;29;20463;-81
2021/11/18 04:48:29;;;;;;;15.38;9.23;;;8.60;55.90;;;;;;4908126;29;20056;-82
2021/11/18 04:50:56;;;;;;;17.08;9.35;;;8.60;56.00;;;;;;4924718;29;20043;-86
2021/11/18 04:53:26;;;;;;;17.52;9.82;;;8.60;55.80;;;;;;4897626;29;20126;-83
2021/11/18 04:55:54;;;;;;;18.75;11.07;;;8.60;55.70;;;;;;4898975;29;20035;-83
2021/11/18 04:58:21;;;;;;;16.80;10.43;;;8.60;55.60;;;;;;4895095;29;21405;-82
2021/11/18 05:00:51;;;;;;;17.98;9.75;;;8.50;55.70;;;;;;4922957;29;20039;-84
2021/11/18 05:03:19;;;;;;;18.45;10.18;;;8.60;55.60;;;;;;4926429;29;20036;-82
2021/11/18 05:05:49;;;;;;;21.23;11.43;;;8.60;55.60;;;;;;4908131;29;20040;-83
2021/11/18 05:08:16;;;;;;;19.23;11.23;;;8.60;55.60;;;;;;4910136;29;20040;-82
2021/11/18 05:10:44;;;;;;;19.45;11.23;;;8.40;55.80;;;;;;4895880;29;20055;-80
2021/11/18 05:13:16;;;;;;;19.52;10.88;;;8.50;55.80;;;;;;4895892;29;20376;-84
2021/11/18 05:15:52;;;;;;;23.23;12.23;;;8.50;55.60;;;;;;4896606;29;20510;-83
2021/11/18 05:18:18;;;;;;;18.35;11.20;;;8.50;55.50;;;;;;4893331;29;20404;-82
2021/11/18 05:20:45;;;;;;;18.05;11.05;;;8.50;55.50;;;;;;4892824;29;20131;-83
2021/11/18 05:23:12;;;;;;;22.80;11.90;;;8.50;55.60;;;;;;4911298;29;20032;-83
2021/11/18 05:25:48;;;;;;;18.88;12.60;;;8.50;55.60;;;;;;4894508;29;20031;-82
2021/11/18 05:28:15;;;;;;;27.02;12.02;;;8.50;55.60;;;;;;4889387;29;20147;-82
2021/11/18 05:30:41;;;;;;;22.60;12.98;;;8.50;55.60;;;;;;4907282;29;20754;-83
2021/11/18 05:33:11;;;;;;;23.83;13.23;;;8.50;55.50;;;;;;4892451;29;20040;-82
2021/11/18 05:35:38;;;;;;;21.83;13.75;;;8.50;55.40;;;;;;4909280;29;20043;-83
2021/11/18 05:38:05;;;;;;;28.33;14.45;;;8.50;55.40;;;;;;4874048;29;20451;-80
2021/11/18 05:40:32;;;;;;;23.67;12.88;;;8.50;55.40;;;;;;4908163;29;20032;-83
2021/11/18 05:42:59;;;;;;;23.52;13.65;;;8.50;55.50;;;;;;4923001;29;20131;-83
2021/11/18 05:45:28;;;;;;;23.83;13.32;;;8.50;55.60;;;;;;4890118;29;20187;-82
2021/11/18 05:48:05;;;;;;;26.77;14.38;;;8.50;55.50;;;;;;4895677;29;20037;-83
2021/11/18 05:50:32;;;;;;;29.08;14.73;;;8.50;55.50;;;;;;4891614;29;20029;-83
2021/11/18 05:52:59;;;;;;;25.90;15.07;;;8.50;55.50;;;;;;4892828;29;20039;-83
2021/11/18 05:55:29;;;;;;;26.73;14.40;;;8.50;55.50;;;;;;4891448;29;20044;-80
2021/11/18 05:57:55;;;;;;;24.40;14.38;;;8.50;55.40;;;;;;4880716;29;20036;-83
2021/11/18 06:00:25;;;;;;;28.80;15.73;;;8.50;55.40;;;;;;4895818;29;20632;-81
2021/11/18 06:02:53;;;;;;;25.60;15.23;;;8.50;55.40;;;;;;4897937;29;20040;-85
2021/11/18 06:05:23;;;;;;;30.05;17.25;;;8.50;55.30;;;;;;4895963;29;20028;-83
2021/11/18 06:07:49;;;;;;;31.05;17.33;;;8.50;55.40;;;;;;4911465;29;20513;-82
2021/11/18 06:10:16;;;;;;;27.52;17.08;;;8.50;55.50;;;;;;4912159;29;20036;-82
2021/11/18 06:12:43;;;;;;;27.42;16.42;;;8.50;55.50;;;;;;4896575;29;20074;-81
2021/11/18 06:15:17;;;;;;;30.63;17.88;;;8.40;55.30;;;;;;4895370;29;20166;-82
2021/11/18 06:17:43;;;;;;;28.13;17.05;;;8.40;55.30;;;;;;4895484;29;20381;-83
2021/11/18 06:20:11;;;;;;;34.95;17.77;;;8.40;55.20;;;;;;4894230;29;20028;-82
2021/11/18 06:22:39;;;;;;;33.42;18.85;;;8.40;55.20;;;;;;4892178;29;20143;-84
2021/11/18 06:25:11;;;;;;;32.58;17.45;;;8.50;55.20;;;;;;4891460;29;20032;-82
2021/11/18 06:27:40;;;;;;;30.75;17.80;;;8.40;55.00;;;;;;4923114;29;20115;-81
2021/11/18 06:30:11;;;;;;;30.75;18.50;;;8.40;55.00;;;;;;4892944;29;20127;-83
2021/11/18 06:32:37;;;;;;;32.88;18.40;;;8.40;55.10;;;;;;4912569;29;20503;-82
2021/11/18 06:35:04;;;;;;;33.83;19.17;;;8.40;55.00;;;;;;4895660;29;20048;-82
2021/11/18 06:37:30;;;;;;;34.38;19.35;;;8.40;55.00;;;;;;4902855;29;20084;-86
2021/11/18 06:39:56;;;;;;;32.50;18.48;;;8.50;55.20;;;;;;4916345;29;20049;-92
2021/11/18 06:42:24;;;;;;;32.92;17.05;;;8.50;55.90;;;;;;4904055;29;20096;-91
2021/11/18 06:45:01;;;;;;;26.63;15.25;;;8.50;57.10;;;;;;4882889;29;20456;-83
2021/11/18 06:47:28;;;;;;;28.42;15.88;;;8.60;58.30;;;;;;4915287;29;20031;-89
2021/11/18 06:49:55;;;;;;;24.92;14.63;;;8.70;59.10;;;;;;4898142;29;20122;-89
2021/11/18 06:52:21;;;;;;;23.52;14.32;;;8.70;59.70;;;;;;4899884;29;20032;-82
2021/11/18 06:54:49;;;;;;;26.35;14.55;;;8.80;60.20;;;;;;4911612;29;20032;-89
2021/11/18 06:57:17;;;;;;;24.55;13.90;;;8.80;60.40;;;;;;4896521;29;20175;-90
2021/11/18 06:59:44;;;;;;;25.63;14.80;;;8.90;60.70;;;;;;4898635;29;20032;-83
2021/11/18 07:02:11;;;;;;;23.10;12.55;;;9.00;61.30;;;;;;4909634;29;20032;-86
2021/11/18 07:04:37;;;;;;;23.30;13.82;;;9.00;61.50;;;;;;4900684;29;20546;-86
2021/11/18 07:07:04;;;;;;;22.92;13.80;;;9.10;61.70;;;;;;4897313;29;20076;-85
2021/11/18 07:09:30;;;;;;;22.90;13.55;;;9.10;61.50;;;;;;4921422;29;20036;-84
2021/11/18 07:12:12;;;;;;;23.15;14.07;;;9.10;61.40;;;;;;4885618;29;20384;-86
2021/11/18 07:14:38;;;;;;;21.13;13.73;;;9.20;61.40;;;;;;4887215;29;20064;-88
2021/11/18 07:17:04;;;;;;;21.38;12.90;;;9.20;61.40;;;;;;4932609;29;20068;-84
2021/11/18 07:19:32;;;;;;;18.05;12.00;;;9.30;61.40;;;;;;4933650;29;20120;-85
2021/11/18 07:21:59;;;;;;;22.88;13.18;;;9.30;61.30;;;;;;4885367;29;20028;-82
2021/11/18 07:24:42;;;;;;;25.15;13.57;;;9.30;61.30;;;;;;4910351;29;20031;-84
2021/11/18 07:27:08;;;;;;;20.23;13.13;;;9.40;61.50;;;;;;4916454;29;20127;-89
2021/11/18 07:29:34;;;;;;;22.58;13.40;;;9.40;61.30;;;;;;4931254;29;20480;-83
2021/11/18 07:32:00;;;;;;;24.20;14.02;;;9.40;61.40;;;;;;4932693;29;20040;-84
2021/11/18 07:34:27;;;;;;;25.95;14.00;;;9.40;61.50;;;;;;4903129;29;20039;-83
2021/11/18 07:36:58;;;;;;;22.98;13.82;;;9.40;61.50;;;;;;4918072;29;20031;-81
2021/11/18 07:39:26;;;;;;;24.45;13.10;;;9.50;61.70;;;;;;4930435;29;20039;-85
2021/11/18 07:41:53;;;;;;;26.02;13.90;;;9.50;61.60;;;;;;4919820;29;20032;-86
2021/11/18 07:44:45;;;;;;;23.85;13.00;;;9.50;61.70;;;;;;4916426;29;20126;-85
2021/11/18 07:47:46;;;;;;;25.38;12.95;;;9.60;61.70;;;;;;4891187;29;20031;-87
2021/11/18 07:50:17;;;;;;;24.48;12.75;;;9.60;61.80;;;;;;4901194;29;20119;-85
2021/11/18 07:52:43;;;;;;;24.42;12.77;;;9.60;61.80;;;;;;4895702;29;20411;-88
2021/11/18 07:55:13;;;;;;;20.73;12.48;;;9.60;61.80;;;;;;4909614;29;20037;-86
2021/11/18 07:57:39;;;;;;;24.25;13.38;;;9.60;61.90;;;;;;4876815;29;20040;-88
2021/11/18 08:00:09;;;;;;;23.58;12.32;;;9.60;61.60;;;;;;4878498;29;20043;-83
2021/11/18 08:02:45;;;;;;;25.88;13.90;;;9.60;61.10;;;;;;4894555;29;20116;-84
2021/11/18 08:05:30;;;;;;;22.10;13.75;;;9.60;60.80;;;;;;4912007;29;20036;-86
2021/11/18 08:07:56;;;;;;;23.92;13.18;;;9.60;60.70;;;;;;4894225;29;20058;-88
2021/11/18 08:10:24;;;;;;;22.75;12.88;;;9.60;60.60;;;;;;4899522;29;20092;-86
2021/11/18 08:12:50;;;;;;;26.98;14.52;;;9.60;60.50;;;;;;4893723;29;20460;-87
2021/11/18 08:15:18;;;;;;;26.20;14.50;;;9.60;60.40;;;;;;4894188;29;20028;-83
2021/11/18 08:17:45;;;;;;;22.70;14.02;;;9.60;60.30;;;;;;4897604;29;20095;-86
2021/11/18 08:20:15;;;;;;;26.88;14.38;;;9.50;60.10;;;;;;4892629;29;20037;-87
2021/11/18 08:22:42;;;;;;;24.80;14.10;;;9.50;60.20;;;;;;4898034;29;20525;-80
2021/11/18 08:25:10;;;;;;;26.88;14.60;;;9.50;60.20;;;;;;4909242;29;20043;-87
2021/11/18 08:27:43;;;;;;;24.08;13.75;;;9.50;60.20;;;;;;4907990;29;20079;-85
2021/11/18 08:30:15;;;;;;;25.17;12.90;;;9.50;60.30;;;;;;4898056;29;20036;-86
2021/11/18 08:32:43;;;;;;;23.27;13.43;;;9.50;60.20;;;;;;4930514;29;20095;-80
2021/11/18 08:35:19;;;;;;;22.02;13.60;;;9.50;60.20;;;;;;4905197;29;20039;-85
2021/11/18 08:37:46;;;;;;;21.55;13.43;;;9.50;60.80;;;;;;4934966;29;20065;-83
2021/11/18 08:40:13;;;;;;;23.98;14.10;;;9.50;60.20;;;;;;4899457;29;20039;-86
2021/11/18 08:42:40;;;;;;;25.90;14.55;;;9.50;60.50;;;;;;4883105;29;20485;-87
2021/11/18 08:45:08;;;;;;;23.52;13.18;;;9.50;60.40;;;;;;4909826;29;20036;-89
2021/11/18 08:47:35;;;;;;;24.67;13.57;;;9.50;60.50;;;;;;4892677;29;20118;-86
2021/11/18 08:50:03;;;;;;;24.00;14.43;;;9.50;60.60;;;;;;4896622;29;20036;-85
2021/11/18 08:52:32;;;;;;;21.35;14.00;;;9.50;60.50;;;;;;4893630;29;20060;-86
2021/11/18 08:55:00;;;;;;;20.73;12.90;;;9.50;60.50;;;;;;4908645;29;20038;-85
2021/11/18 08:57:27;;;;;;;26.33;13.07;;;9.50;60.50;;;;;;4891218;29;20423;-89
2021/11/18 09:00:20;;;;;;;21.27;13.38;;;9.50;60.60;;;;;;4893847;29;20035;-90
2021/11/18 09:03:12;;;;;;;24.92;13.25;;;9.50;60.50;;;;;;4906438;29;20488;-87
2021/11/18 09:05:41;;;;;;;23.70;13.63;;;9.60;60.40;;;;;;4892535;29;20028;-82
2021/11/18 09:08:07;;;;;;;23.92;13.40;;;9.50;60.30;;;;;;4909805;29;20039;-82
2021/11/18 09:10:36;;;;;;;19.20;13.27;;;9.50;60.10;;;;;;4889769;29;20135;-84
2021/11/18 09:13:04;;;;;;;21.48;12.90;;;9.60;60.00;;;;;;4895797;29;20040;-80
2021/11/18 09:15:33;;;;;;;22.95;13.02;;;9.60;60.00;;;;;;4907551;29;20033;-81
2021/11/18 09:17:59;;;;;;;45.03;13.30;;;9.50;60.00;;;;;;4890494;29;20044;-81
2021/11/18 09:20:38;;;;;;;21.38;13.13;;;9.50;60.70;;;;;;4891254;29;20131;-85
2021/11/18 09:23:05;;;;;;;22.40;13.85;;;9.60;61.70;;;;;;4879821;29;20036;-81
2021/11/18 09:25:41;;;;;;;24.48;13.77;;;9.60;61.00;;;;;;4894620;29;20028;-84
2021/11/18 09:28:09;;;;;;;22.02;13.00;;;9.50;59.40;;;;;;4895442;29;20094;-80
2021/11/18 09:30:47;;;;;;;23.00;14.25;;;9.50;58.40;;;;;;4897075;29;20126;-83
2021/11/18 09:33:14;;;;;;;20.60;12.73;;;9.50;57.50;;;;;;4922241;29;20469;-84
2021/11/18 09:35:43;;;;;;;25.13;14.07;;;9.40;56.80;;;;;;4892832;29;20036;-82
2021/11/18 09:38:12;;;;;;;19.52;12.25;;;9.40;56.20;;;;;;4893217;29;20492;-82
2021/11/18 09:40:49;;;;;;;22.92;12.48;;;9.40;56.90;;;;;;4895125;29;20028;-80
2021/11/18 09:43:51;;;;;;;22.38;12.75;;;9.30;56.80;;;;;;4895310;29;20036;-83
2021/11/18 09:46:22;;;;;;;23.38;13.10;;;9.30;56.60;;;;;;4816913;29;20041;-82
2021/11/18 09:48:54;;;;;;;25.02;13.30;;;9.30;56.40;;;;;;4820539;29;20038;-84
2021/11/18 09:51:48;;;;;;;20.73;13.07;;;9.20;56.00;;;;;;4885340;29;20036;-81
2021/11/18 09:54:32;;;;;;;24.75;13.52;;;9.20;55.60;;;;;;4892398;29;20059;-83
2021/11/18 09:57:23;;;;;;;26.75;14.57;;;9.20;55.20;;;;;;4921681;29;20036;-83
2021/11/18 10:00:28;;;;;;;22.60;13.23;;;9.10;54.80;;;;;;4897456;29;20043;-81
2021/11/18 10:03:32;;;;;;;23.95;13.85;;;9.10;54.70;;;;;;4898006;29;21271;-81
2021/11/18 10:06:19;;;;;;;29.67;12.88;;;9.10;54.50;;;;;;4895025;29;20040;-81
2021/11/18 10:09:08;;;;;;;21.40;12.45;;;9.10;55.60;;;;;;4893877;29;20131;-79
2021/11/18 10:11:49;;;;;;;21.77;13.35;;;9.10;56.70;;;;;;4912170;29;20147;-80
2021/11/18 10:14:44;;;;;;;26.25;13.85;;;9.20;57.40;;;;;;4892826;29;20028;-82
2021/11/18 10:17:11;;;;;;;23.17;13.02;;;9.20;58.10;;;;;;4899798;29;20131;-80
2021/11/18 10:19:47;;;;;;;20.35;12.77;;;9.30;58.80;;;;;;4880401;29;20087;-82
2021/11/18 10:22:15;;;;;;;22.23;14.35;;;9.30;59.50;;;;;;4900252;29;20087;-82
2021/11/18 10:24:44;;;;;;;21.17;13.43;;;9.30;60.30;;;;;;4893052;29;20043;-81
2021/11/18 10:27:32;;;;;;;22.23;14.63;;;9.30;59.30;;;;;;4914921;29;20063;-81
2021/11/18 10:30:17;;;;;;;22.48;13.23;;;9.30;57.80;;;;;;4911388;29;20038;-81
2021/11/18 10:32:51;;;;;;;30.25;15.15;;;9.30;56.80;;;;;;4893741;29;20248;-82
2021/11/18 10:35:35;;;;;;;27.58;14.57;;;9.20;55.70;;;;;;4912001;29;20039;-81
2021/11/18 10:38:33;;;;;;;24.50;14.43;;;9.20;55.30;;;;;;4908909;29;20078;-81
2021/11/18 10:41:04;;;;;;;25.30;13.85;;;9.20;54.90;;;;;;4883337;29;20052;-80
2021/11/18 10:43:34;;;;;;;25.00;15.10;;;9.20;54.60;;;;;;4912706;29;20033;-77
2021/11/18 10:46:11;;;;;;;26.48;14.75;;;9.20;54.40;;;;;;4895565;29;20392;-79
2021/11/18 10:48:54;;;;;;;28.42;15.00;;;9.20;54.30;;;;;;4912600;29;20529;-81
2021/11/18 10:51:47;;;;;;;25.25;15.13;;;9.10;54.00;;;;;;4881691;29;20039;-80
2021/11/18 10:54:16;;;;;;;23.05;14.30;;;9.10;53.70;;;;;;4909143;29;20084;-80
2021/11/18 10:56:59;;;;;;;26.60;14.07;;;9.10;53.70;;;;;;4910574;29;20040;-81
2021/11/18 10:59:47;;;;;;;24.52;14.63;;;9.10;53.40;;;;;;4893228;29;20043;-79
2021/11/18 11:02:33;;;;;;;28.77;15.30;;;9.10;53.10;;;;;;4892114;29;20432;-80
2021/11/18 11:05:24;;;;;;;29.48;14.82;;;9.10;53.20;;;;;;4910593;29;20055;-82
2021/11/18 11:07:51;;;;;;;23.38;14.48;;;9.00;52.90;;;;;;4900172;29;20043;-81
2021/11/18 11:10:21;;;;;;;24.52;15.10;;;9.00;53.10;;;;;;4913292;29;20031;-81
2021/11/18 11:12:50;;;;;;;22.52;14.27;;;9.00;53.50;;;;;;4908929;29;20039;-81
2021/11/18 11:15:57;;;;;;;23.42;14.35;;;9.00;52.70;;;;;;4897065;29;20123;-81
2021/11/18 11:18:44;;;;;;;31.92;15.48;;;9.00;52.80;;;;;;4912936;29;20048;-79
2021/11/18 11:21:34;;;;;;;24.42;14.35;;;8.90;52.90;;;;;;4925814;29;20064;-79
2021/11/18 11:24:18;;;;;;;26.25;14.45;;;8.90;52.90;;;;;;4896408;29;20036;-80
2021/11/18 11:26:56;;;;;;;24.80;14.27;;;8.90;52.70;;;;;;4898393;29;20055;-81
2021/11/18 11:29:35;;;;;;;24.80;15.40;;;8.80;52.70;;;;;;4920010;29;20050;-81
2021/11/18 11:32:20;;;;;;;26.80;16.13;;;8.80;52.90;;;;;;4935295;29;20131;-82
2021/11/18 11:35:06;;;;;;;25.83;14.68;;;8.80;52.80;;;;;;4919309;29;20115;-80
2021/11/18 11:38:00;;;;;;;27.00;15.23;;;8.80;52.80;;;;;;4900454;29;20092;-81
2021/11/18 11:40:28;;;;;;;22.83;13.70;;;8.80;53.00;;;;;;4932899;29;20124;-81
2021/11/18 11:43:22;;;;;;;22.70;14.60;;;8.80;52.80;;;;;;4911216;29;20092;-80
2021/11/18 11:46:11;;;;;;;26.77;14.88;;;8.80;52.60;;;;;;4919457;29;20063;-82
2021/11/18 11:49:04;;;;;;;22.75;14.70;;;8.70;52.70;;;;;;4917111;29;20522;-80
2021/11/18 11:51:30;;;;;;;25.08;14.73;;;8.70;52.80;;;;;;4928129;29;20039;-81
2021/11/18 11:54:09;;;;;;;23.85;14.77;;;8.70;52.70;;;;;;4917877;29;20463;-80
2021/11/18 11:56:41;;;;;;;29.73;16.55;;;8.70;52.90;;;;;;4905041;29;20042;-82
2021/11/18 11:59:19;;;;;;;21.23;14.38;;;8.70;52.90;;;;;;4914666;29;20098;-81
2021/11/18 12:02:00;;;;;;;25.77;15.32;;;8.70;53.10;;;;;;4926491;29;20083;-79
2021/11/18 12:04:38;;;;;;;24.60;14.30;;;8.60;53.00;;;;;;4912217;29;20028;-85
2021/11/18 12:07:25;;;;;;;27.73;15.98;;;8.60;53.00;;;;;;4908429;29;20024;-83
2021/11/18 12:10:04;;;;;;;32.25;15.90;;;8.50;53.00;;;;;;4911723;29;20044;-82
2021/11/18 12:12:51;;;;;;;27.42;15.85;;;8.50;53.00;;;;;;4916863;29;20039;-82
2021/11/18 12:15:20;;;;;;;26.13;15.57;;;8.60;53.10;;;;;;4900034;29;20474;-81
2021/11/18 12:17:49;;;;;;;28.95;15.88;;;8.50;52.80;;;;;;4902200;29;20037;-83
2021/11/18 12:20:19;;;;;;;25.73;15.75;;;8.50;53.00;;;;;;4925131;29;20054;-81
2021/11/18 12:22:44;;;;;;;27.65;16.00;;;8.50;52.90;;;;;;4911871;29;20531;-83
2021/11/18 12:25:15;;;;;;;24.35;15.68;;;8.50;52.80;;;;;;4885952;29;20164;-83
2021/11/18 12:28:08;;;;;;;27.73;15.80;;;8.50;53.00;;;;;;4916269;29;20075;-84
2021/11/18 12:30:58;;;;;;;27.38;16.15;;;8.50;53.00;;;;;;4886270;29;20535;-82
2021/11/18 12:33:24;;;;;;;28.90;17.55;;;8.50;52.80;;;;;;4912000;29;20064;-81
2021/11/18 12:36:25;;;;;;;26.70;16.23;;;8.50;53.70;;;;;;4899399;29;20072;-81
2021/11/18 12:38:54;;;;;;;30.25;16.67;;;8.50;52.90;;;;;;4908327;29;20411;-80
2021/11/18 12:41:26;;;;;;;31.15;16.08;;;8.50;53.00;;;;;;4903273;29;20036;-81
2021/11/18 12:44:13;;;;;;;31.95;17.88;;;8.50;53.00;;;;;;4905644;29;20427;-80
2021/11/18 12:46:54;;;;;;;30.92;17.13;;;8.40;52.90;;;;;;4887452;29;20412;-82
2021/11/18 12:49:23;;;;;;;28.35;17.67;;;8.40;53.10;;;;;;4910459;29;20579;-82
2021/11/18 12:52:17;;;;;;;32.92;18.63;;;8.40;53.10;;;;;;4906315;29;20040;-81
2021/11/18 12:55:14;;;;;;;30.02;16.67;;;8.40;53.00;;;;;;4917768;29;20040;-82
2021/11/18 12:57:47;;;;;;;28.17;17.35;;;8.40;53.10;;;;;;4897418;29;20484;-82
2021/11/18 13:00:16;;;;;;;30.60;17.27;;;8.30;53.10;;;;;;4926372;29;20040;-82
2021/11/18 13:02:44;;;;;;;29.20;17.63;;;8.40;53.10;;;;;;4906649;29;20047;-82
2021/11/18 13:05:10;;;;;;;30.67;17.67;;;8.30;53.30;;;;;;4886953;29;20590;-82
2021/11/18 13:07:54;;;;;;;28.27;16.23;;;8.30;53.30;;;;;;4887956;29;20041;-82